createdAt,value
2022-10-22T00:00:26.047Z,69.13
2022-10-22T00:01:26.023Z,69.36
2022-10-22T00:02:26.086Z,69.48
2022-10-22T00:03:26.028Z,69.08
2022-10-22T00:04:26.481Z,68.73
2022-10-22T00:05:25.986Z,68.45
2022-10-22T00:06:25.958Z,68.39
2022-10-22T00:07:25.960Z,68.68
2022-10-22T00:08:25.931Z,69.13
2022-10-22T00:09:25.959Z,69.66
2022-10-22T00:10:25.897Z,69.95
2022-10-22T00:11:25.927Z,70.90
2022-10-22T00:12:25.890Z,71.95
2022-10-22T00:13:25.886Z,72.96
2022-10-22T00:14:25.892Z,73.15
2022-10-22T00:15:25.853Z,75.07
2022-10-22T00:16:25.850Z,77.37
2022-10-22T00:17:25.833Z,79.52
2022-10-22T00:18:25.780Z,79.59
2022-10-22T00:19:25.788Z,79.29
2022-10-22T00:20:25.764Z,79.98
2022-10-22T00:21:25.777Z,79.90
2022-10-22T00:22:25.734Z,79.29
2022-10-22T00:23:25.731Z,79.37
2022-10-22T00:24:25.698Z,78.61
2022-10-22T00:25:25.765Z,77.59
2022-10-22T00:28:17.338Z,94.85
2022-10-22T00:29:18.288Z,88.02
2022-10-22T00:30:18.240Z,83.85
2022-10-22T00:31:18.198Z,80.68
2022-10-22T00:32:18.167Z,79.29
2022-10-22T00:33:18.167Z,78.84
2022-10-22T00:34:18.129Z,79.59
2022-10-22T00:35:18.117Z,78.25
2022-10-22T00:36:18.114Z,77.51
2022-10-22T00:37:18.100Z,77.08
2022-10-22T00:38:18.089Z,78.32
2022-10-22T00:39:18.117Z,78.54
2022-10-22T00:40:18.055Z,78.47
2022-10-22T00:41:18.041Z,78.76
2022-10-22T00:42:18.045Z,78.69
2022-10-22T00:43:18.011Z,78.32
2022-10-22T00:44:17.997Z,78.17
2022-10-22T00:45:17.978Z,78.91
2022-10-22T00:46:17.990Z,78.32
2022-10-22T00:47:17.960Z,76.87
2022-10-22T00:48:17.942Z,75.68
2022-10-22T00:49:17.960Z,73.67
2022-10-22T00:50:17.911Z,72.26
2022-10-22T00:51:17.898Z,71.03
2022-10-22T00:52:17.877Z,70.60
2022-10-22T00:53:17.884Z,69.19
2022-10-22T00:54:17.859Z,67.95
2022-10-22T00:55:17.864Z,67.40
2022-10-22T00:56:17.825Z,66.06
2022-10-22T00:57:17.809Z,65.64
2022-10-22T00:58:17.806Z,65.54
2022-10-22T00:59:17.788Z,65.02
2022-10-22T01:00:17.766Z,64.27
2022-10-22T01:01:17.844Z,64.02
2022-10-22T01:02:17.753Z,63.92
2022-10-22T01:03:17.745Z,64.17
2022-10-22T01:04:17.713Z,63.68
2022-10-22T01:05:17.702Z,64.07
2022-10-22T01:06:17.694Z,64.07
2022-10-22T01:07:17.705Z,63.92
2022-10-22T01:08:17.667Z,63.92
2022-10-22T01:09:17.655Z,64.07
2022-10-22T01:10:17.641Z,64.17
2022-10-22T01:11:17.621Z,64.42
2022-10-22T01:12:17.601Z,64.52
2022-10-22T01:13:17.608Z,64.82
2022-10-22T01:14:17.575Z,64.32
2022-10-22T01:15:17.564Z,64.62
2022-10-22T01:16:17.549Z,64.62
2022-10-22T01:17:17.574Z,64.52
2022-10-22T01:18:17.539Z,64.82
2022-10-22T01:19:17.506Z,64.57
2022-10-22T01:20:17.487Z,65.02
2022-10-22T01:21:17.480Z,64.37
2022-10-22T01:22:17.463Z,64.82
2022-10-22T01:23:17.467Z,64.42
2022-10-22T01:24:17.437Z,64.67
2022-10-22T01:25:17.437Z,64.52
2022-10-22T01:26:17.458Z,64.07
2022-10-22T01:27:17.403Z,64.42
2022-10-22T01:28:17.375Z,64.12
2022-10-22T01:29:17.376Z,64.22
2022-10-22T01:30:17.362Z,63.97
2022-10-22T01:31:17.341Z,64.27
2022-10-22T01:32:17.326Z,64.32
2022-10-22T01:33:17.314Z,64.07
2022-10-22T01:34:17.312Z,64.32
2022-10-22T01:35:17.301Z,64.12
2022-10-22T01:36:17.274Z,64.57
2022-10-22T01:37:17.268Z,64.47
2022-10-22T01:38:17.258Z,64.62
2022-10-22T01:39:17.249Z,64.32
2022-10-22T01:40:17.213Z,64.87
2022-10-22T01:41:17.242Z,64.32
2022-10-22T01:42:17.199Z,64.47
2022-10-22T01:43:17.198Z,64.67
2022-10-22T01:44:17.162Z,64.52
2022-10-22T01:45:17.178Z,65.13
2022-10-22T01:46:17.150Z,65.02
2022-10-22T01:47:17.132Z,64.72
2022-10-22T01:48:17.125Z,65.02
2022-10-22T01:49:17.091Z,65.43
2022-10-22T01:50:17.107Z,65.33
2022-10-22T01:51:17.067Z,65.13
2022-10-22T01:52:17.056Z,65.07
2022-10-22T01:53:17.045Z,65.23
2022-10-22T01:54:17.040Z,65.18
2022-10-22T01:55:17.032Z,65.33
2022-10-22T01:56:16.997Z,65.43
2022-10-22T01:57:17.008Z,65.13
2022-10-22T01:58:16.979Z,65.59
2022-10-22T01:59:16.968Z,65.49
2022-10-22T02:00:16.968Z,65.28
2022-10-22T02:01:16.928Z,65.33
2022-10-22T02:02:16.917Z,65.23
2022-10-22T02:03:19.851Z,65.49
2022-10-22T02:04:16.913Z,65.90
2022-10-22T02:05:16.880Z,65.54
2022-10-22T02:06:16.858Z,65.64
2022-10-22T02:07:16.862Z,66.06
2022-10-22T02:08:16.842Z,66.06
2022-10-22T02:09:16.898Z,66.43
2022-10-22T02:10:16.809Z,66.06
2022-10-22T02:11:16.795Z,66.06
2022-10-22T02:12:16.773Z,66.43
2022-10-22T02:13:16.774Z,65.85
2022-10-22T02:14:16.747Z,66.16
2022-10-22T02:15:16.751Z,66.11
2022-10-22T02:16:16.743Z,66.59
2022-10-22T02:17:16.806Z,66.59
2022-10-22T02:18:16.701Z,66.43
2022-10-22T02:19:16.693Z,66.43
2022-10-22T02:20:16.686Z,66.75
2022-10-22T02:21:16.677Z,66.96
2022-10-22T02:22:16.638Z,67.02
2022-10-22T02:23:16.688Z,66.86
2022-10-22T02:24:16.648Z,66.64
2022-10-22T02:25:16.697Z,66.43
2022-10-22T02:26:16.747Z,66.86
2022-10-22T02:27:16.598Z,66.80
2022-10-22T02:28:16.585Z,66.75
2022-10-22T02:29:16.652Z,66.91
2022-10-22T02:32:02.680Z,90.91
2022-10-22T02:33:03.495Z,82.60
2022-10-22T02:34:03.364Z,78.10
2022-10-22T02:36:24.595Z,97.85
2022-10-22T02:37:25.375Z,88.40
2022-10-22T02:38:25.334Z,83.01
2022-10-22T02:39:25.292Z,79.44
2022-10-22T02:40:25.355Z,77.08
2022-10-22T02:41:25.587Z,75.82
2022-10-22T02:42:25.262Z,74.26
2022-10-22T02:43:25.278Z,73.28
2022-10-22T02:44:34.499Z,72.77
2022-10-22T02:45:25.426Z,72.20
2022-10-22T02:46:43.530Z,71.70
2022-10-22T02:47:25.381Z,72.01
2022-10-22T02:48:25.211Z,71.27
2022-10-22T02:49:25.170Z,70.96
2022-10-22T02:50:25.214Z,71.03
2022-10-22T02:51:25.150Z,70.84
2022-10-22T02:52:25.138Z,70.72
2022-10-22T02:53:25.148Z,71.03
2022-10-22T02:54:25.137Z,70.90
2022-10-22T02:55:25.116Z,70.78
2022-10-22T02:56:25.075Z,70.24
2022-10-22T02:57:25.051Z,70.42
2022-10-22T02:58:25.032Z,70.78
2022-10-22T02:59:25.008Z,70.07
2022-10-22T03:00:25.054Z,70.18
2022-10-22T03:01:25.004Z,70.01
2022-10-22T03:02:24.980Z,69.77
2022-10-22T03:03:24.972Z,70.07
2022-10-22T03:04:24.955Z,69.89
2022-10-22T03:05:24.977Z,70.42
2022-10-22T03:07:24.961Z,69.89
2022-10-22T03:08:24.940Z,70.42
2022-10-22T03:09:25.059Z,69.95
2022-10-22T03:10:24.866Z,69.66
2022-10-22T03:11:25.007Z,69.95
2022-10-22T03:12:24.863Z,69.89
2022-10-22T03:13:24.849Z,69.77
2022-10-22T03:14:24.834Z,70.18
2022-10-22T03:15:24.872Z,69.89
2022-10-22T03:16:24.790Z,69.89
2022-10-22T03:17:24.801Z,69.89
2022-10-22T03:18:24.760Z,69.66
2022-10-22T03:19:24.767Z,70.13
2022-10-22T03:20:24.718Z,70.18
2022-10-22T03:21:24.701Z,70.01
2022-10-22T03:22:24.693Z,69.95
2022-10-22T03:23:24.703Z,70.18
2022-10-22T03:24:24.674Z,69.89
2022-10-22T03:25:25.257Z,70.13
2022-10-22T03:27:57.202Z,94.14
2022-10-22T03:28:58.151Z,86.47
2022-10-22T03:29:58.182Z,82.03
2022-10-22T03:30:58.076Z,79.06
2022-10-22T03:31:58.060Z,77.59
2022-10-22T03:32:58.062Z,76.17
2022-10-22T03:33:58.045Z,75.07
2022-10-22T03:34:58.009Z,74.93
2022-10-22T03:35:58.036Z,74.19
2022-10-22T03:36:58.010Z,73.54
2022-10-22T03:37:57.979Z,73.47
2022-10-22T03:38:57.997Z,73.54
2022-10-22T03:39:57.961Z,73.28
2022-10-22T03:40:57.955Z,73.28
2022-10-22T03:41:57.988Z,73.41
2022-10-22T03:42:57.915Z,73.80
2022-10-22T03:43:57.903Z,73.73
2022-10-22T03:44:57.896Z,73.60
2022-10-22T03:45:57.878Z,73.67
2022-10-22T03:47:00.274Z,73.60
2022-10-22T03:47:57.842Z,73.60
2022-10-22T03:48:57.828Z,73.60
2022-10-22T03:49:57.830Z,73.34
2022-10-22T03:50:57.805Z,73.41
2022-10-22T03:51:57.816Z,73.60
2022-10-22T03:52:57.803Z,73.47
2022-10-22T03:53:57.778Z,73.54
2022-10-22T03:54:57.820Z,73.54
2022-10-22T03:55:57.846Z,73.15
2022-10-22T03:57:08.528Z,73.54
2022-10-22T03:57:57.819Z,73.60
2022-10-22T03:58:57.731Z,73.93
2022-10-22T03:59:57.762Z,74.26
2022-10-22T04:00:58.191Z,74.46
2022-10-22T04:01:57.947Z,74.53
2022-10-22T04:02:57.713Z,74.26
2022-10-22T04:03:57.694Z,74.33
2022-10-22T04:04:57.739Z,74.53
2022-10-22T04:05:57.691Z,74.59
2022-10-22T04:06:57.682Z,74.79
2022-10-22T04:07:57.721Z,75.07
2022-10-22T04:08:57.647Z,74.79
2022-10-22T04:09:57.710Z,75.07
2022-10-22T04:10:57.563Z,75.07
2022-10-22T04:11:57.667Z,75.54
2022-10-22T04:12:57.516Z,75.68
2022-10-22T04:16:12.611Z,99.19
2022-10-22T04:17:13.496Z,91.11
2022-10-22T04:18:13.420Z,86.11
2022-10-22T04:19:13.387Z,83.43
2022-10-22T04:20:13.423Z,81.87
2022-10-22T04:21:13.388Z,81.07
2022-10-22T04:22:13.407Z,79.98
2022-10-22T04:23:13.387Z,79.06
2022-10-22T04:24:13.387Z,78.99
2022-10-22T04:25:13.397Z,78.54
2022-10-22T04:26:13.364Z,78.32
2022-10-22T04:27:13.271Z,78.10
2022-10-22T04:28:13.272Z,78.03
2022-10-22T04:29:16.013Z,78.10
2022-10-22T04:30:13.266Z,77.81
2022-10-22T04:31:13.235Z,77.44
2022-10-22T04:32:13.224Z,77.23
2022-10-22T04:33:13.235Z,77.30
2022-10-22T04:34:13.241Z,77.23
2022-10-22T04:35:13.290Z,77.30
2022-10-22T04:36:13.244Z,77.59
2022-10-22T04:37:13.246Z,77.23
2022-10-22T04:38:13.160Z,77.30
2022-10-22T04:39:13.149Z,77.66
2022-10-22T04:40:13.182Z,77.81
2022-10-22T04:41:13.133Z,77.95
2022-10-22T04:42:13.119Z,77.95
2022-10-22T04:43:13.103Z,78.17
2022-10-22T04:44:16.770Z,78.03
2022-10-22T04:45:13.134Z,78.17
2022-10-22T04:46:13.121Z,78.17
2022-10-22T04:47:29.852Z,78.39
2022-10-22T04:48:13.120Z,78.03
2022-10-22T04:49:13.011Z,77.81
2022-10-22T04:50:25.163Z,77.66
2022-10-22T04:51:13.162Z,77.73
2022-10-22T04:52:12.995Z,77.81
2022-10-22T04:53:12.962Z,77.51
2022-10-22T04:54:14.839Z,77.37
2022-10-22T04:55:12.896Z,77.81
2022-10-22T04:57:47.164Z,104.43
2022-10-22T04:58:48.076Z,93.98
2022-10-22T04:59:48.071Z,90.61
2022-10-22T05:00:48.053Z,87.37
2022-10-22T05:01:48.000Z,86.56
2022-10-22T05:02:47.980Z,86.92
2022-10-22T05:03:47.993Z,86.56
2022-10-22T05:04:47.980Z,85.66
2022-10-22T05:05:47.943Z,84.79
2022-10-22T05:06:47.977Z,83.76
2022-10-22T05:07:47.915Z,83.43
2022-10-22T05:08:47.973Z,84.27
2022-10-22T05:09:47.907Z,84.79
2022-10-22T05:10:47.859Z,84.44
2022-10-22T05:11:47.850Z,83.93
2022-10-22T05:12:47.886Z,84.27
2022-10-22T05:13:47.849Z,84.88
2022-10-22T05:14:47.836Z,84.27
2022-10-22T05:15:47.886Z,83.60
2022-10-22T05:16:48.429Z,84.02
2022-10-22T05:21:27.421Z,105.09
2022-10-22T05:22:28.109Z,94.84
2022-10-22T05:25:23.239Z,114.42
2022-10-22T05:27:38.989Z,126.62
2022-10-22T05:28:39.903Z,112.25
2022-10-22T05:30:54.070Z,129.58
2022-10-22T05:31:55.027Z,114.10
2022-10-22T05:32:54.976Z,105.89
2022-10-22T05:33:54.959Z,99.85
2022-10-22T05:34:55.960Z,95.65
2022-10-22T05:35:55.074Z,95.84
2022-10-22T05:36:54.925Z,94.53
2022-10-22T05:37:58.034Z,93.05
2022-10-22T05:38:54.963Z,91.41
2022-10-22T05:40:06.478Z,90.91
2022-10-22T05:40:54.870Z,89.73
2022-10-22T05:41:54.842Z,88.87
2022-10-22T05:42:54.835Z,87.93
2022-10-22T05:43:54.818Z,87.47
2022-10-22T05:44:54.850Z,87.74
2022-10-22T05:45:54.791Z,87.47
2022-10-22T05:46:54.779Z,87.84
2022-10-22T05:47:54.780Z,87.65
2022-10-22T05:48:54.753Z,87.19
2022-10-22T05:49:54.774Z,87.10
2022-10-22T05:50:54.739Z,86.74
2022-10-22T05:51:54.725Z,86.83
2022-10-22T05:52:54.720Z,87.10
2022-10-22T05:53:54.717Z,87.19
2022-10-22T05:54:54.701Z,87.47
2022-10-22T05:55:54.662Z,88.11
2022-10-22T05:56:54.672Z,88.40
2022-10-22T05:57:54.628Z,88.68
2022-10-22T05:58:54.670Z,88.87
2022-10-22T05:59:54.614Z,89.44
2022-10-22T06:00:54.586Z,90.12
2022-10-22T06:01:54.596Z,91.11
2022-10-22T06:02:54.559Z,92.43
2022-10-22T06:03:54.550Z,95.95
2022-10-22T06:04:54.536Z,95.62
2022-10-22T06:05:54.521Z,94.64
2022-10-22T06:06:54.540Z,93.89
2022-10-22T06:07:54.489Z,93.05
2022-10-22T06:08:54.513Z,92.94
2022-10-22T06:09:54.463Z,92.84
2022-10-22T06:10:54.453Z,92.74
2022-10-22T06:11:54.468Z,92.12
2022-10-22T06:12:54.431Z,92.32
2022-10-22T06:13:54.411Z,92.84
2022-10-22T06:14:54.409Z,93.36
2022-10-22T06:15:54.385Z,93.89
2022-10-22T06:16:54.384Z,93.05
2022-10-22T06:17:54.362Z,92.94
2022-10-22T06:18:54.380Z,92.32
2022-10-22T06:19:54.406Z,92.22
2022-10-22T06:20:54.327Z,91.11
2022-10-22T06:21:54.317Z,90.51
2022-10-22T06:22:54.296Z,89.25
2022-10-22T06:23:54.293Z,87.56
2022-10-22T06:24:54.280Z,87.65
2022-10-22T06:25:54.270Z,87.37
2022-10-22T06:26:54.257Z,88.21
2022-10-22T06:27:54.231Z,88.77
2022-10-22T06:29:01.786Z,89.93
2022-10-22T06:29:54.207Z,88.11
2022-10-22T06:30:54.206Z,89.15
2022-10-22T06:31:54.193Z,89.44
2022-10-22T06:32:54.167Z,91.31
2022-10-22T06:33:54.185Z,92.53
2022-10-22T06:34:54.144Z,93.15
2022-10-22T06:35:54.123Z,95.62
2022-10-22T06:36:54.122Z,95.95
2022-10-22T06:37:54.115Z,95.11
2022-10-22T06:38:54.096Z,95.60
2022-10-22T06:39:54.073Z,95.49
2022-10-22T06:40:54.102Z,94.51
2022-10-22T06:41:54.114Z,94.46
2022-10-22T06:42:54.036Z,94.89
2022-10-22T06:43:54.037Z,94.64
2022-10-22T06:44:54.063Z,96.04
2022-10-22T06:45:54.037Z,97.22
2022-10-22T06:46:54.000Z,98.43
2022-10-22T06:47:54.016Z,99.19
2022-10-22T06:48:53.992Z,98.96
2022-10-22T06:49:53.948Z,95.82
2022-10-22T06:50:53.939Z,94.94
2022-10-22T06:51:53.949Z,95.18
2022-10-22T06:52:53.904Z,96.04
2022-10-22T06:53:53.892Z,97.39
2022-10-22T06:54:53.876Z,96.77
2022-10-22T06:55:53.862Z,96.88
2022-10-22T06:56:53.873Z,97.85
2022-10-22T06:57:53.852Z,99.14
2022-10-22T06:58:53.828Z,99.91
2022-10-22T06:59:53.844Z,97.56
2022-10-22T07:00:53.894Z,97.28
2022-10-22T07:02:02.355Z,97.51
2022-10-22T07:02:57.630Z,98.08
2022-10-22T07:03:53.773Z,100.64
2022-10-22T07:04:53.751Z,100.33
2022-10-22T07:05:53.728Z,97.79
2022-10-22T07:06:53.899Z,101.12
2022-10-22T07:07:53.695Z,103.65
2022-10-22T07:08:53.913Z,105.15
2022-10-22T07:09:53.695Z,105.42
2022-10-22T07:10:53.665Z,102.88
2022-10-22T07:11:53.648Z,100.76
2022-10-22T07:12:53.634Z,97.91
2022-10-22T07:13:53.624Z,96.71
2022-10-22T07:14:53.598Z,98.14
2022-10-22T07:15:53.600Z,98.61
2022-10-22T07:16:53.581Z,98.20
2022-10-22T07:17:53.598Z,98.14
2022-10-22T07:18:53.559Z,94.68
2022-10-22T07:19:53.566Z,95.95
2022-10-22T07:20:53.520Z,94.41
2022-10-22T07:21:53.506Z,94.89
2022-10-22T07:22:53.511Z,96.88
2022-10-22T07:23:53.497Z,97.45
2022-10-22T07:24:53.473Z,97.51
2022-10-22T07:25:53.541Z,96.43
2022-10-22T07:26:53.447Z,95.11
2022-10-22T07:27:53.462Z,95.62
2022-10-22T07:28:53.442Z,94.31
2022-10-22T07:29:53.409Z,92.43
2022-10-22T07:30:53.384Z,91.01
2022-10-22T07:31:53.369Z,89.64
2022-10-22T07:32:53.378Z,88.40
2022-10-22T07:33:53.339Z,87.56
2022-10-22T07:34:53.487Z,87.19
2022-10-22T07:35:53.368Z,85.31
2022-10-22T07:36:53.310Z,83.85
2022-10-22T07:37:53.299Z,83.68
2022-10-22T07:38:53.282Z,83.35
2022-10-22T07:39:53.266Z,84.70
2022-10-22T07:40:53.280Z,85.75
2022-10-22T07:41:53.253Z,87.01
2022-10-22T07:42:53.238Z,85.31
2022-10-22T07:43:53.223Z,83.10
2022-10-22T07:44:53.204Z,83.60
2022-10-22T07:45:53.229Z,84.27
2022-10-22T07:46:53.178Z,82.76
2022-10-22T07:47:53.165Z,81.63
2022-10-22T07:48:53.157Z,80.75
2022-10-22T07:49:53.169Z,80.36
2022-10-22T07:50:53.150Z,79.98
2022-10-22T07:51:53.123Z,80.99
2022-10-22T07:52:54.864Z,82.52
2022-10-22T07:53:53.125Z,82.35
2022-10-22T07:54:53.072Z,86.20
2022-10-22T07:55:53.060Z,88.40
2022-10-22T07:56:53.053Z,87.84
2022-10-22T07:57:53.046Z,87.01
2022-10-22T07:58:53.092Z,85.49
2022-10-22T07:59:53.019Z,83.85
2022-10-22T08:00:53.009Z,84.96
2022-10-22T08:01:52.978Z,84.27
2022-10-22T08:02:52.978Z,84.10
2022-10-22T08:03:52.964Z,83.76
2022-10-22T08:04:53.060Z,84.62
2022-10-22T08:05:52.924Z,83.93
2022-10-22T08:06:52.911Z,82.76
2022-10-22T08:07:52.927Z,83.76
2022-10-22T08:08:52.976Z,84.62
2022-10-22T08:09:52.867Z,82.93
2022-10-22T08:10:52.869Z,82.60
2022-10-22T08:11:52.845Z,84.79
2022-10-22T08:12:52.827Z,86.92
2022-10-22T08:13:52.829Z,88.11
2022-10-22T08:14:52.802Z,90.51
2022-10-22T08:15:56.493Z,92.43
2022-10-22T08:16:52.787Z,92.84
2022-10-22T08:17:52.759Z,93.89
2022-10-22T08:18:52.746Z,91.21
2022-10-22T08:19:52.731Z,91.61
2022-10-22T08:20:52.732Z,92.74
2022-10-22T08:21:52.700Z,94.64
2022-10-22T08:22:52.691Z,95.49
2022-10-22T08:23:52.719Z,96.38
2022-10-22T08:24:52.674Z,95.11
2022-10-22T08:25:52.676Z,95.95
2022-10-22T08:26:52.665Z,94.53
2022-10-22T08:27:52.618Z,89.83
2022-10-22T08:28:52.610Z,86.02
2022-10-22T08:29:54.217Z,83.85
2022-10-22T08:30:52.692Z,81.71
2022-10-22T08:31:52.575Z,85.14
2022-10-22T08:32:54.063Z,87.56
2022-10-22T08:33:52.566Z,86.65
2022-10-22T08:34:52.531Z,90.81
2022-10-22T08:35:52.525Z,91.21
2022-10-22T08:36:52.511Z,92.32
2022-10-22T08:37:52.533Z,91.11
2022-10-22T08:38:52.586Z,90.22
2022-10-22T08:39:52.457Z,89.35
2022-10-22T08:40:52.493Z,90.51
2022-10-22T08:41:52.424Z,88.40
2022-10-22T08:42:52.426Z,87.65
2022-10-22T08:43:52.403Z,85.14
2022-10-22T08:44:52.390Z,84.27
2022-10-22T08:45:52.373Z,81.87
2022-10-22T08:46:52.362Z,81.23
2022-10-22T08:47:52.355Z,80.60
2022-10-22T08:48:52.379Z,79.14
2022-10-22T08:49:52.322Z,79.52
2022-10-22T08:50:52.319Z,81.31
2022-10-22T08:51:52.297Z,79.52
2022-10-22T08:52:52.288Z,76.87
2022-10-22T08:53:52.305Z,78.39
2022-10-22T08:54:52.274Z,78.76
2022-10-22T08:55:52.280Z,79.21
2022-10-22T08:56:52.239Z,78.61
2022-10-22T08:57:52.734Z,77.95
2022-10-22T08:58:52.214Z,77.01
2022-10-22T08:59:52.198Z,76.31
2022-10-22T09:00:52.181Z,77.44
2022-10-22T09:01:52.176Z,79.21
2022-10-22T09:02:52.144Z,79.75
2022-10-22T09:03:52.150Z,80.91
2022-10-22T09:04:52.121Z,79.37
2022-10-22T09:06:53.633Z,76.66
2022-10-22T09:07:52.078Z,76.24
2022-10-22T09:08:52.140Z,76.59
2022-10-22T09:09:52.060Z,80.21
2022-10-22T09:10:52.064Z,81.23
2022-10-22T09:11:52.040Z,81.39
2022-10-22T09:12:52.010Z,79.90
2022-10-22T09:13:52.017Z,81.71
2022-10-22T09:14:51.971Z,81.23
2022-10-22T09:15:52.000Z,80.44
2022-10-22T09:16:51.982Z,78.84
2022-10-22T09:17:51.933Z,78.69
2022-10-22T09:18:51.945Z,79.98
2022-10-22T09:19:51.908Z,78.32
2022-10-22T09:20:51.913Z,78.47
2022-10-22T09:21:51.907Z,79.14
2022-10-22T09:22:51.860Z,78.03
2022-10-22T09:23:51.857Z,78.69
2022-10-22T09:24:51.847Z,79.75
2022-10-22T09:25:51.832Z,80.21
2022-10-22T09:26:51.816Z,81.07
2022-10-22T09:27:51.804Z,81.55
2022-10-22T09:28:51.791Z,80.05
2022-10-22T09:29:51.787Z,80.05
2022-10-22T09:30:51.778Z,81.79
2022-10-22T09:31:51.794Z,80.52
2022-10-22T09:32:51.742Z,78.76
2022-10-22T09:33:51.764Z,77.88
2022-10-22T09:34:51.698Z,75.75
2022-10-22T09:35:51.698Z,75.82
2022-10-22T09:36:51.679Z,77.88
2022-10-22T09:37:51.677Z,81.15
2022-10-22T09:38:51.703Z,86.56
2022-10-22T09:39:51.632Z,88.11
2022-10-22T09:40:51.611Z,87.10
2022-10-22T09:41:51.626Z,89.83
2022-10-22T09:42:51.586Z,88.02
2022-10-22T09:43:51.576Z,88.40
2022-10-22T09:44:51.571Z,87.10
2022-10-22T09:45:51.549Z,90.42
2022-10-22T09:46:51.703Z,92.84
2022-10-22T09:48:01.809Z,94.74
2022-10-22T09:48:51.654Z,94.64
2022-10-22T09:49:51.491Z,93.78
2022-10-22T09:50:51.476Z,91.51
2022-10-22T09:51:52.224Z,90.81
2022-10-22T09:52:51.450Z,88.11
2022-10-22T09:53:51.452Z,88.40
2022-10-22T09:54:51.424Z,86.20
2022-10-22T09:55:52.277Z,85.31
2022-10-22T09:56:51.394Z,85.05
2022-10-22T09:57:51.388Z,86.65
2022-10-22T09:58:51.379Z,87.19
2022-10-22T09:59:51.405Z,89.06
2022-10-22T10:00:51.340Z,92.02
2022-10-22T10:01:51.330Z,95.51
2022-10-22T10:02:51.357Z,95.33
2022-10-22T10:03:51.314Z,93.15
2022-10-22T10:04:51.295Z,92.94
2022-10-22T10:05:51.278Z,92.43
2022-10-22T10:06:51.265Z,88.40
2022-10-22T10:07:51.244Z,87.84
2022-10-22T10:08:51.312Z,87.01
2022-10-22T10:09:51.224Z,87.47
2022-10-22T10:10:51.199Z,85.93
2022-10-22T10:11:51.200Z,85.66
2022-10-22T10:12:51.218Z,82.52
2022-10-22T10:13:51.163Z,81.31
2022-10-22T10:14:51.355Z,79.82
2022-10-22T10:15:51.137Z,82.68
2022-10-22T10:16:51.130Z,86.20
2022-10-22T10:17:51.112Z,86.29
2022-10-22T10:18:51.096Z,83.60
2022-10-22T10:19:52.316Z,82.52
2022-10-22T10:20:51.094Z,80.68
2022-10-22T10:21:51.824Z,81.47
2022-10-22T10:22:51.046Z,83.01
2022-10-22T10:23:51.025Z,84.62
2022-10-22T10:24:51.028Z,83.76
2022-10-22T10:25:51.008Z,83.76
2022-10-22T10:26:50.996Z,83.10
2022-10-22T10:27:50.983Z,81.55
2022-10-22T10:28:50.965Z,84.62
2022-10-22T10:29:50.955Z,88.87
2022-10-22T10:30:50.945Z,87.84
2022-10-22T10:31:50.952Z,86.38
2022-10-22T10:32:50.902Z,85.57
2022-10-22T10:33:50.903Z,87.84
2022-10-22T10:34:50.869Z,92.32
2022-10-22T10:35:50.859Z,96.71
2022-10-22T10:36:50.861Z,104.30
2022-10-22T10:37:50.894Z,101.06
2022-10-22T10:38:50.821Z,99.25
2022-10-22T10:39:50.908Z,98.78
2022-10-22T10:40:50.788Z,95.71
2022-10-22T10:41:50.932Z,97.56
2022-10-22T10:42:50.784Z,96.10
2022-10-22T10:43:50.815Z,98.61
2022-10-22T10:44:50.754Z,96.21
2022-10-22T10:45:55.498Z,95.29
2022-10-22T10:46:50.748Z,93.78
2022-10-22T10:47:50.704Z,94.74
2022-10-22T10:48:50.714Z,96.06
2022-10-22T10:49:50.669Z,94.89
2022-10-22T10:50:50.735Z,98.20
2022-10-22T10:51:50.652Z,101.25
2022-10-22T10:52:50.687Z,100.27
2022-10-22T10:53:50.616Z,101.06
2022-10-22T10:54:50.608Z,110.98
2022-10-22T10:55:50.645Z,111.13
2022-10-22T10:56:50.581Z,110.10
2022-10-22T10:57:50.569Z,110.61
2022-10-22T10:58:50.550Z,105.76
2022-10-22T10:59:50.549Z,109.23
2022-10-22T11:00:50.534Z,112.03
2022-10-22T11:01:50.558Z,118.41
2022-10-22T11:02:50.543Z,125.57
2022-10-22T11:03:50.487Z,129.08
2022-10-22T11:04:50.462Z,127.98
2022-10-22T11:05:50.455Z,121.35
2022-10-22T11:06:50.457Z,109.02
2022-10-22T11:07:55.592Z,107.47
2022-10-22T11:08:50.496Z,100.82
2022-10-22T11:09:50.404Z,102.12
2022-10-22T11:10:50.389Z,106.71
2022-10-22T11:11:50.453Z,105.82
2022-10-22T11:12:50.375Z,109.02
2022-10-22T11:13:50.377Z,109.59
2022-10-22T11:14:50.790Z,107.26
2022-10-22T11:15:50.387Z,113.56
2022-10-22T11:16:50.302Z,119.69
2022-10-22T11:17:50.300Z,125.47
2022-10-22T11:18:50.275Z,126.43
2022-10-22T11:19:52.316Z,127.00
2022-10-22T11:20:50.268Z,127.79
2022-10-22T11:21:50.325Z,126.81
2022-10-22T11:23:16.878Z,121.35
2022-10-22T11:23:50.229Z,119.26
2022-10-22T11:24:50.252Z,118.24
2022-10-22T11:25:50.212Z,122.15
2022-10-22T11:26:50.173Z,140.18
2022-10-22T11:27:50.218Z,146.48
2022-10-22T11:28:50.150Z,144.94
2022-10-22T11:29:50.155Z,142.70
2022-10-22T11:30:50.127Z,144.44
2022-10-22T11:31:50.116Z,142.58
2022-10-22T11:32:50.099Z,140.65
2022-10-22T11:33:50.084Z,142.21
2022-10-22T11:34:50.064Z,141.97
2022-10-22T11:35:50.091Z,141.73
2022-10-22T11:36:50.052Z,148.84
2022-10-22T11:37:50.030Z,169.47
2022-10-22T11:38:50.016Z,181.49
2022-10-22T11:39:50.044Z,188.33
2022-10-22T11:40:49.993Z,202.44
2022-10-22T11:41:50.008Z,207.06
2022-10-22T11:42:49.972Z,208.38
2022-10-22T11:43:49.946Z,213.27
2022-10-22T11:44:49.940Z,208.12
2022-10-22T11:45:49.930Z,213.00
2022-10-22T11:46:50.039Z,205.76
2022-10-22T11:47:50.774Z,205.11
2022-10-22T11:48:49.996Z,220.02
2022-10-22T11:49:49.872Z,228.64
2022-10-22T11:50:49.876Z,236.41
2022-10-22T11:51:49.841Z,240.94
2022-10-22T11:52:49.832Z,237.61
2022-10-22T11:53:49.838Z,235.05
2022-10-22T11:54:49.810Z,227.21
2022-10-22T11:55:49.816Z,220.62
2022-10-22T11:56:49.792Z,213.55
2022-10-22T11:57:49.790Z,208.78
2022-10-22T11:58:52.331Z,207.06
2022-10-22T11:59:49.756Z,206.93
2022-10-22T12:00:49.734Z,202.82
2022-10-22T12:01:49.707Z,204.09
2022-10-22T12:02:49.696Z,215.67
2022-10-22T12:03:49.680Z,201.45
2022-10-22T12:04:49.798Z,204.98
2022-10-22T12:05:49.667Z,211.34
2022-10-22T12:06:49.735Z,218.99
2022-10-22T12:07:50.158Z,220.02
2022-10-22T12:08:49.847Z,227.05
2022-10-22T12:09:49.677Z,228.00
2022-10-22T12:10:49.657Z,230.90
2022-10-22T12:11:49.584Z,225.64
2022-10-22T12:12:49.597Z,229.44
2022-10-22T12:13:49.548Z,237.61
2022-10-22T12:14:49.557Z,241.30
2022-10-22T12:15:49.575Z,234.38
2022-10-22T12:16:57.459Z,230.25
2022-10-22T12:17:49.538Z,222.42
2022-10-22T12:18:49.496Z,229.60
2022-10-22T12:19:49.474Z,227.05
2022-10-22T12:20:49.463Z,223.79
2022-10-22T12:21:49.464Z,222.72
2022-10-22T12:22:49.454Z,220.02
2022-10-22T12:23:49.422Z,228.96
2022-10-22T12:24:49.415Z,227.21
2022-10-22T12:25:49.403Z,222.72
2022-10-22T12:26:49.382Z,226.27
2022-10-22T12:27:49.386Z,225.02
2022-10-22T12:28:49.367Z,218.84
2022-10-22T12:29:50.544Z,229.28
2022-10-22T12:30:49.347Z,229.12
2022-10-22T12:31:49.320Z,232.54
2022-10-22T12:32:49.307Z,232.88
2022-10-22T12:33:49.322Z,238.65
2022-10-22T12:35:49.278Z,217.82
2022-10-22T12:36:49.259Z,224.09
2022-10-22T12:37:49.245Z,226.74
2022-10-22T12:38:49.243Z,226.42
2022-10-22T12:39:49.216Z,221.66
2022-10-22T12:40:49.309Z,227.68
2022-10-22T12:41:49.202Z,209.85
2022-10-22T12:42:49.188Z,206.80
2022-10-22T12:43:49.164Z,215.10
2022-10-22T12:44:49.347Z,228.32
2022-10-22T12:45:49.138Z,232.21
2022-10-22T12:46:52.939Z,228.64
2022-10-22T12:47:49.167Z,222.12
2022-10-22T12:48:49.276Z,224.40
2022-10-22T12:49:49.113Z,223.63
2022-10-22T12:50:49.107Z,225.64
2022-10-22T12:51:49.110Z,216.96
2022-10-22T12:52:50.077Z,215.67
2022-10-22T12:53:49.045Z,220.62
2022-10-22T12:54:49.027Z,223.48
2022-10-22T12:55:49.008Z,220.32
2022-10-22T12:56:49.006Z,218.99
2022-10-22T12:57:49.010Z,209.99
2022-10-22T12:58:48.987Z,215.95
2022-10-22T12:59:49.914Z,209.99
2022-10-22T13:00:49.087Z,213.41
2022-10-22T13:01:48.945Z,215.38
2022-10-22T13:02:48.928Z,211.89
2022-10-22T13:03:48.926Z,215.81
2022-10-22T13:04:48.894Z,221.96
2022-10-22T13:05:48.883Z,220.62
2022-10-22T13:06:48.920Z,209.05
2022-10-22T13:07:48.855Z,205.89
2022-10-22T13:08:48.881Z,190.19